createdAt,value
2019-03-18T00:01:29.516Z,11.32
2019-03-18T00:04:01.336Z,11.34
2019-03-18T00:06:33.190Z,11.40
2019-03-18T00:09:05.714Z,11.28
2019-03-18T00:11:37.530Z,11.31
2019-03-18T00:14:09.479Z,11.39
2019-03-18T00:16:41.567Z,11.24
2019-03-18T00:19:13.252Z,11.20
2019-03-18T00:21:45.304Z,11.21
2019-03-18T00:24:16.928Z,11.23
2019-03-18T00:26:48.843Z,11.39
2019-03-18T00:29:20.472Z,11.48
2019-03-18T00:31:52.061Z,11.50
2019-03-18T00:34:23.914Z,11.44
2019-03-18T00:36:55.838Z,11.38
2019-03-18T00:39:30.565Z,11.30
2019-03-18T00:42:02.267Z,11.50
2019-03-18T00:44:34.472Z,11.34
2019-03-18T00:47:06.032Z,11.29
2019-03-18T00:49:41.022Z,11.44
2019-03-18T00:52:14.315Z,11.47
2019-03-18T00:54:46.016Z,11.41
2019-03-18T00:57:17.748Z,11.40
2019-03-18T00:59:52.948Z,11.35
2019-03-18T01:02:24.561Z,11.35
2019-03-18T01:04:56.334Z,11.25
2019-03-18T01:07:28.071Z,11.36
2019-03-18T01:09:59.785Z,11.27
2019-03-18T01:12:31.434Z,11.30
2019-03-18T01:15:03.060Z,11.26
2019-03-18T01:17:34.710Z,11.19
2019-03-18T01:20:13.845Z,11.16
2019-03-18T01:22:45.533Z,11.15
2019-03-18T01:25:17.250Z,11.08
2019-03-18T01:27:48.855Z,11.04
2019-03-18T01:30:28.123Z,10.90
2019-03-18T01:32:59.742Z,10.81
2019-03-18T01:35:31.365Z,10.80
2019-03-18T01:38:03.013Z,10.60
2019-03-18T01:40:37.401Z,10.50
2019-03-18T01:43:09.064Z,10.43
2019-03-18T01:45:41.333Z,10.40
2019-03-18T01:48:12.875Z,10.45
2019-03-18T01:50:44.545Z,10.70
2019-03-18T01:53:16.311Z,10.63
2019-03-18T01:55:50.690Z,10.71
2019-03-18T01:58:22.326Z,10.86
2019-03-18T02:00:54.143Z,10.84
2019-03-18T02:03:25.892Z,10.86
2019-03-18T02:05:57.447Z,10.88
2019-03-18T02:08:29.081Z,10.78
2019-03-18T02:11:09.697Z,10.71
2019-03-18T02:13:41.303Z,10.65
2019-03-18T02:16:12.890Z,10.82
2019-03-18T02:18:44.545Z,10.79
2019-03-18T02:21:22.688Z,10.78
2019-03-18T02:23:54.390Z,10.69
2019-03-18T02:26:26.066Z,10.60
2019-03-18T02:28:57.637Z,10.59
2019-03-18T02:31:29.288Z,10.54
2019-03-18T02:34:01.143Z,10.43
2019-03-18T02:36:32.982Z,10.24
2019-03-18T02:39:05.679Z,10.13
2019-03-18T02:41:40.708Z,10.21
2019-03-18T02:44:12.431Z,10.28
2019-03-18T02:46:44.195Z,10.37
2019-03-18T02:49:15.859Z,10.37
2019-03-18T02:51:47.295Z,10.35
2019-03-18T02:54:19.046Z,10.39
2019-03-18T02:56:50.713Z,10.49
2019-03-18T02:59:22.448Z,10.58
2019-03-18T03:01:57.201Z,10.60
2019-03-18T03:04:28.783Z,10.66
2019-03-18T03:07:00.499Z,10.69
2019-03-18T03:09:32.484Z,10.84
2019-03-18T03:12:14.286Z,10.81
2019-03-18T03:14:46.069Z,10.81
2019-03-18T03:17:21.474Z,10.83
2019-03-18T03:19:50.982Z,10.85
2019-03-18T03:22:22.489Z,10.89
2019-03-18T03:24:54.314Z,10.81
2019-03-18T03:27:26.113Z,10.85
2019-03-18T03:29:59.443Z,10.81
2019-03-18T03:32:31.206Z,10.75
2019-03-18T03:35:02.737Z,10.75
2019-03-18T03:37:34.366Z,10.74
2019-03-18T03:40:06.118Z,10.71
2019-03-18T03:42:40.958Z,10.74
2019-03-18T03:45:13.457Z,10.73
2019-03-18T03:47:45.084Z,10.66
2019-03-18T03:50:16.805Z,10.70
2019-03-18T03:52:55.754Z,10.71
2019-03-18T03:55:27.365Z,10.65
2019-03-18T03:57:59.385Z,10.60
2019-03-18T04:00:30.947Z,10.62
2019-03-18T04:03:05.836Z,10.62
2019-03-18T04:05:37.660Z,10.64
2019-03-18T04:08:09.529Z,10.65
2019-03-18T04:10:41.205Z,10.66
2019-03-18T04:13:15.622Z,10.59
2019-03-18T04:15:47.543Z,10.60
2019-03-18T04:18:19.249Z,10.71
2019-03-18T04:20:51.338Z,10.62
2019-03-18T04:23:30.527Z,10.54
2019-03-18T04:26:02.205Z,10.53
2019-03-18T04:28:33.916Z,10.69
2019-03-18T04:31:05.731Z,10.72
2019-03-18T04:33:39.132Z,10.68
2019-03-18T04:36:11.207Z,10.68
2019-03-18T04:38:43.336Z,10.76
2019-03-18T04:41:15.107Z,10.84
2019-03-18T04:43:47.524Z,10.85
2019-03-18T04:46:19.137Z,10.91
2019-03-18T04:48:51.406Z,10.84
2019-03-18T04:51:23.051Z,10.82
2019-03-18T04:53:54.850Z,10.76
2019-03-18T04:56:26.672Z,10.77
2019-03-18T04:58:58.341Z,10.76
2019-03-18T05:01:29.974Z,10.76
2019-03-18T05:04:01.586Z,10.73
2019-03-18T05:06:33.424Z,10.75
2019-03-18T05:09:05.835Z,10.74
2019-03-18T05:11:37.540Z,10.69
2019-03-18T05:14:09.253Z,10.61
2019-03-18T05:16:40.902Z,10.69
2019-03-18T05:19:12.675Z,10.78
2019-03-18T05:21:44.320Z,10.78
2019-03-18T05:24:15.990Z,10.78
2019-03-18T05:26:47.570Z,10.91
2019-03-18T05:29:25.552Z,10.92
2019-03-18T05:31:57.136Z,10.89
2019-03-18T05:34:28.969Z,10.94
2019-03-18T05:37:00.799Z,11.09
2019-03-18T05:39:32.624Z,11.08
2019-03-18T05:42:04.263Z,11.08
2019-03-18T05:44:35.918Z,11.10
2019-03-18T05:47:07.553Z,11.07
2019-03-18T05:49:39.257Z,11.13
2019-03-18T05:52:11.121Z,11.18
2019-03-18T05:54:42.708Z,11.38
2019-03-18T05:57:14.512Z,11.54
2019-03-18T05:59:46.221Z,11.78
2019-03-18T06:02:17.921Z,11.59
2019-03-18T06:04:49.690Z,11.49
2019-03-18T06:07:21.380Z,11.60
2019-03-18T06:09:53.685Z,11.78
2019-03-18T06:12:25.448Z,12.02
2019-03-18T06:14:57.241Z,11.74
2019-03-18T06:17:28.969Z,11.36
2019-03-18T06:20:01.079Z,11.24
2019-03-18T06:22:32.866Z,11.35
2019-03-18T06:25:05.036Z,11.29
2019-03-18T06:27:36.961Z,11.20
2019-03-18T06:30:09.736Z,11.17
2019-03-18T06:32:41.694Z,11.21
2019-03-18T06:35:13.852Z,11.14
2019-03-18T06:37:46.210Z,11.19
2019-03-18T06:40:18.388Z,11.20
2019-03-18T06:42:50.046Z,11.14
2019-03-18T06:45:22.214Z,11.15
2019-03-18T06:48:04.328Z,11.09
2019-03-18T06:50:27.164Z,11.25
2019-03-18T06:52:58.965Z,11.20
2019-03-18T06:55:31.462Z,11.28
2019-03-18T06:58:03.327Z,11.29
2019-03-18T07:00:36.116Z,11.34
2019-03-18T07:03:07.919Z,11.38
2019-03-18T07:05:39.773Z,11.52
2019-03-18T07:08:11.694Z,11.54
2019-03-18T07:10:43.564Z,11.81
2019-03-18T07:13:15.959Z,11.99
2019-03-18T07:15:47.723Z,12.00
2019-03-18T07:18:19.695Z,12.03
2019-03-18T07:20:52.548Z,12.58
2019-03-18T07:23:24.356Z,12.66
2019-03-18T07:25:56.512Z,12.69
2019-03-18T07:28:28.275Z,12.82
2019-03-18T07:30:59.881Z,13.64
2019-03-18T07:33:31.559Z,13.44
2019-03-18T07:36:03.285Z,13.04
2019-03-18T07:38:35.244Z,12.81
2019-03-18T07:41:06.869Z,12.85
2019-03-18T07:43:38.487Z,12.81
2019-03-18T07:46:10.653Z,12.80
2019-03-18T07:48:42.364Z,13.09
2019-03-18T07:51:14.258Z,13.42
2019-03-18T07:53:46.253Z,13.35
2019-03-18T07:56:17.868Z,14.08
2019-03-18T07:58:49.650Z,16.14
2019-03-18T08:01:21.694Z,17.80
2019-03-18T08:03:53.592Z,16.58
2019-03-18T08:06:25.195Z,17.09
2019-03-18T08:08:56.864Z,17.31
2019-03-18T08:11:28.988Z,15.97
2019-03-18T08:14:00.922Z,16.62
2019-03-18T08:16:32.630Z,16.76
2019-03-18T08:19:04.293Z,16.69
2019-03-18T08:21:36.099Z,15.68
2019-03-18T08:24:07.976Z,15.73
2019-03-18T08:26:39.583Z,16.45
2019-03-18T08:29:11.500Z,14.41
2019-03-18T08:31:43.366Z,14.25
2019-03-18T08:34:15.119Z,13.87
2019-03-18T08:36:46.831Z,13.75
2019-03-18T08:39:19.338Z,13.76
2019-03-18T08:41:54.254Z,13.78
2019-03-18T08:44:27.070Z,13.87
2019-03-18T08:46:58.960Z,14.06
2019-03-18T08:49:31.287Z,14.04
2019-03-18T08:52:03.415Z,14.00
2019-03-18T08:54:36.010Z,14.23
2019-03-18T08:57:09.647Z,14.12
2019-03-18T08:59:42.220Z,14.05
2019-03-18T09:02:14.330Z,13.89
2019-03-18T09:04:47.892Z,14.18
2019-03-18T09:07:20.310Z,14.05
2019-03-18T09:09:53.648Z,13.81
2019-03-18T09:12:25.436Z,13.68
2019-03-18T09:14:58.507Z,13.82
2019-03-18T09:17:30.893Z,14.01
2019-03-18T09:20:02.704Z,13.96
2019-03-18T09:22:35.043Z,13.96
2019-03-18T09:25:07.268Z,13.73
2019-03-18T09:27:39.367Z,13.81
2019-03-18T09:30:13.265Z,13.59
2019-03-18T09:32:45.979Z,13.45
2019-03-18T09:35:18.176Z,13.58
2019-03-18T09:37:50.168Z,13.40
2019-03-18T09:40:22.071Z,13.34
2019-03-18T09:42:54.053Z,13.32
2019-03-18T09:45:25.955Z,13.30
2019-03-18T09:47:59.637Z,13.29
2019-03-18T09:50:31.613Z,13.22
2019-03-18T09:53:03.281Z,13.20
2019-03-18T09:55:35.262Z,13.22
2019-03-18T09:58:07.551Z,13.33
2019-03-18T10:00:39.543Z,13.11
2019-03-18T10:03:11.476Z,13.02
2019-03-18T10:05:44.053Z,12.99
2019-03-18T10:08:17.001Z,12.93
2019-03-18T10:10:50.000Z,13.03
2019-03-18T10:13:21.676Z,13.11
2019-03-18T10:15:53.509Z,13.09
2019-03-18T10:18:25.332Z,13.14
2019-03-18T10:20:57.179Z,13.04
2019-03-18T10:23:29.596Z,12.97
2019-03-18T10:26:01.374Z,13.01
2019-03-18T10:28:33.456Z,12.52
2019-03-18T10:31:05.846Z,12.18
2019-03-18T10:33:37.620Z,12.17
2019-03-18T10:36:09.370Z,12.37
2019-03-18T10:38:41.333Z,12.47
2019-03-18T10:41:13.329Z,12.49
2019-03-18T10:43:45.670Z,12.47
2019-03-18T10:46:17.562Z,12.42
2019-03-18T10:48:49.762Z,12.33
2019-03-18T10:59:03.969Z,11.67
2019-03-18T11:01:35.797Z,11.51
2019-03-18T11:04:07.914Z,11.52
2019-03-18T11:06:40.426Z,11.52
2019-03-18T11:09:12.238Z,11.63
2019-03-18T11:11:43.865Z,11.58
2019-03-18T11:14:15.816Z,11.64
2019-03-18T11:16:48.512Z,11.75
2019-03-18T11:19:20.336Z,11.85
2019-03-18T11:21:52.225Z,11.90
2019-03-18T11:24:23.964Z,11.90
2019-03-18T11:26:55.996Z,11.88
2019-03-18T11:29:27.952Z,11.89
2019-03-18T11:31:59.757Z,11.90
2019-03-18T11:34:31.528Z,11.95
2019-03-18T11:37:03.063Z,12.02
2019-03-18T11:39:34.747Z,12.08
2019-03-18T11:42:07.014Z,12.23
2019-03-18T11:44:38.625Z,12.47
2019-03-18T11:47:10.994Z,12.70
2019-03-18T11:49:43.077Z,12.83
2019-03-18T11:52:14.962Z,13.24
2019-03-18T11:54:46.717Z,13.78
2019-03-18T11:57:18.848Z,14.45
2019-03-18T11:59:50.877Z,14.73
2019-03-18T12:02:27.531Z,14.60
2019-03-18T12:04:57.717Z,14.25
2019-03-18T12:07:30.870Z,14.26
2019-03-18T12:10:02.628Z,14.43
2019-03-18T12:12:35.002Z,15.25
2019-03-18T12:15:07.375Z,14.93
2019-03-18T12:17:39.090Z,14.67
2019-03-18T12:20:23.467Z,14.58
2019-03-18T12:22:45.432Z,14.70
2019-03-18T12:25:17.412Z,15.09
2019-03-18T12:27:49.109Z,15.46
2019-03-18T12:30:21.210Z,15.51
2019-03-18T12:32:53.097Z,15.38
2019-03-18T12:35:24.982Z,15.04
2019-03-18T12:37:57.173Z,14.98
2019-03-18T12:40:28.923Z,15.10
2019-03-18T12:43:00.942Z,14.85
2019-03-18T12:45:32.856Z,14.73
2019-03-18T12:48:04.681Z,14.67
2019-03-18T12:50:49.739Z,14.69
2019-03-18T12:53:10.085Z,14.63
2019-03-18T12:55:42.289Z,14.83
2019-03-18T12:58:14.426Z,14.83
2019-03-18T13:00:46.144Z,14.84
2019-03-18T13:03:17.824Z,14.80
2019-03-18T13:05:49.459Z,15.08
2019-03-18T13:08:21.320Z,15.13
2019-03-18T13:10:53.240Z,15.15
2019-03-18T13:13:25.004Z,15.04
2019-03-18T13:15:56.491Z,15.26
2019-03-18T13:18:28.139Z,15.21
2019-03-18T13:21:07.760Z,15.38
2019-03-18T13:23:33.431Z,15.37
2019-03-18T13:26:05.328Z,15.31
2019-03-18T13:28:37.055Z,15.71
2019-03-18T13:31:08.872Z,16.20
2019-03-18T13:33:41.780Z,16.15
2019-03-18T13:36:14.393Z,16.04
2019-03-18T13:38:46.336Z,15.91
2019-03-18T13:41:18.803Z,15.76
2019-03-18T13:43:50.737Z,15.70
2019-03-18T13:46:22.516Z,15.63
2019-03-18T13:48:54.626Z,15.67
2019-03-18T13:51:26.375Z,15.68
2019-03-18T13:53:58.261Z,16.05
2019-03-18T13:56:30.242Z,15.60
2019-03-18T13:59:03.752Z,15.40
2019-03-18T14:01:51.861Z,15.06
2019-03-18T14:04:37.500Z,15.05
2019-03-18T14:07:22.253Z,14.89
2019-03-18T14:09:57.944Z,15.25
2019-03-18T14:12:32.642Z,16.36
2019-03-18T14:15:11.773Z,17.90
2019-03-18T14:17:45.773Z,18.34
2019-03-18T14:20:27.646Z,18.27
2019-03-18T14:23:14.183Z,18.07
2019-03-18T14:26:31.236Z,18.31
2019-03-18T14:29:17.098Z,18.82
2019-03-18T14:31:59.333Z,18.19
2019-03-18T14:34:41.662Z,17.20
2019-03-18T14:37:17.023Z,17.39
2019-03-18T14:39:52.039Z,17.16
2019-03-18T14:42:30.031Z,17.55
2019-03-18T14:45:04.593Z,17.59
2019-03-18T14:47:43.634Z,17.19
2019-03-18T14:50:29.453Z,16.57
2019-03-18T14:53:13.714Z,16.56
2019-03-18T14:56:01.381Z,16.77
2019-03-18T14:58:54.518Z,17.12
2019-03-18T15:01:33.714Z,16.25
2019-03-18T15:04:08.202Z,15.84
2019-03-18T15:06:46.184Z,16.10
2019-03-18T15:09:38.732Z,15.67
2019-03-18T15:12:19.549Z,15.31
2019-03-18T15:14:57.667Z,14.99
2019-03-18T15:17:42.537Z,15.23
2019-03-18T15:20:24.800Z,15.09
2019-03-18T15:23:05.120Z,14.87
2019-03-18T15:25:51.767Z,14.76
2019-03-18T15:28:32.887Z,14.96
2019-03-18T15:31:13.383Z,14.78
2019-03-18T15:34:01.188Z,15.13
2019-03-18T15:36:50.408Z,15.37
2019-03-18T15:39:36.270Z,15.04
2019-03-18T15:42:15.731Z,14.87
2019-03-18T15:44:53.741Z,14.64
2019-03-18T15:47:35.324Z,14.97
2019-03-18T15:50:12.863Z,14.99
2019-03-18T15:52:45.896Z,14.94
2019-03-18T15:55:19.742Z,14.47
2019-03-18T15:57:53.495Z,14.66
2019-03-18T16:00:26.893Z,14.64
2019-03-18T16:03:02.037Z,14.61
2019-03-18T16:05:36.000Z,14.31
2019-03-18T16:08:09.468Z,14.22
2019-03-18T16:10:43.470Z,14.22
2019-03-18T16:13:17.951Z,14.15
2019-03-18T16:15:53.461Z,14.02
2019-03-18T16:18:28.486Z,13.81
2019-03-18T16:21:03.491Z,13.80
2019-03-18T16:23:45.202Z,13.73
2019-03-18T16:26:22.535Z,13.74
2019-03-18T16:29:03.878Z,13.59
2019-03-18T16:31:41.686Z,13.54
2019-03-18T16:34:21.523Z,13.48
2019-03-18T16:37:02.486Z,13.45
2019-03-18T16:39:42.280Z,13.38
2019-03-18T16:42:37.466Z,13.25
2019-03-18T16:45:20.268Z,13.14
2019-03-18T16:48:13.471Z,13.04
2019-03-18T16:50:54.126Z,12.97
2019-03-18T16:53:33.579Z,12.70
2019-03-18T16:56:12.584Z,12.42
2019-03-18T16:58:53.582Z,12.27
2019-03-18T17:01:38.926Z,11.93
2019-03-18T17:04:14.071Z,11.78
2019-03-18T17:06:47.591Z,11.61
2019-03-18T17:09:22.197Z,11.42
2019-03-18T17:11:58.027Z,11.29
2019-03-18T17:14:32.143Z,11.12
2019-03-18T17:17:18.746Z,10.95
2019-03-18T17:19:54.747Z,10.83
2019-03-18T17:22:30.643Z,10.71
2019-03-18T17:25:05.453Z,10.59
2019-03-18T17:27:39.340Z,10.51
2019-03-18T17:30:21.114Z,10.44
2019-03-18T17:32:57.175Z,10.53
2019-03-18T17:35:35.912Z,10.41
2019-03-18T17:38:14.360Z,10.43
2019-03-18T17:40:54.469Z,10.35
2019-03-18T17:43:35.096Z,10.33
2019-03-18T17:46:13.978Z,10.28
2019-03-18T17:48:54.644Z,10.16
2019-03-18T17:51:33.366Z,10.03
2019-03-18T17:54:10.851Z,9.85
2019-03-18T17:56:45.586Z,9.74
2019-03-18T17:59:22.253Z,9.60
2019-03-18T18:01:58.500Z,9.48
2019-03-18T18:04:34.652Z,9.38
2019-03-18T18:07:13.184Z,9.27
2019-03-18T18:09:49.540Z,9.16
2019-03-18T18:12:27.777Z,9.07
2019-03-18T18:15:04.470Z,8.98
2019-03-18T18:17:42.669Z,8.92
2019-03-18T18:20:18.012Z,8.88
2019-03-18T18:22:52.583Z,8.87
2019-03-18T18:25:28.678Z,8.79
2019-03-18T18:28:07.140Z,8.70
2019-03-18T18:30:44.349Z,8.60
2019-03-18T18:33:21.835Z,8.45
2019-03-18T18:36:03.403Z,8.30
2019-03-18T18:38:38.353Z,8.21
2019-03-18T18:41:16.654Z,8.15
2019-03-18T18:43:54.793Z,8.11
2019-03-18T18:46:31.405Z,8.12
2019-03-18T18:49:05.265Z,8.11
2019-03-18T18:51:38.561Z,8.10
2019-03-18T18:54:13.346Z,8.07
2019-03-18T18:56:47.343Z,8.08
2019-03-18T18:59:41.400Z,8.08
2019-03-18T19:02:14.479Z,8.13
2019-03-18T19:04:48.523Z,8.19
2019-03-18T19:07:23.643Z,8.17
2019-03-18T19:09:56.672Z,8.13
2019-03-18T19:12:30.173Z,8.12
2019-03-18T19:15:03.674Z,8.12
2019-03-18T19:17:39.132Z,8.07
2019-03-18T19:20:14.198Z,8.01
2019-03-18T19:22:48.477Z,8.04
2019-03-18T19:25:22.238Z,8.08
2019-03-18T19:27:57.331Z,8.16
2019-03-18T19:30:32.427Z,8.25
2019-03-18T19:33:07.034Z,8.36
2019-03-18T19:35:40.482Z,8.43
2019-03-18T19:38:14.742Z,8.49
2019-03-18T19:40:49.479Z,8.52
2019-03-18T19:43:25.840Z,8.57
2019-03-18T19:46:00.205Z,8.58
2019-03-18T19:48:34.460Z,8.67
2019-03-18T19:51:10.053Z,8.68
2019-03-18T19:53:49.340Z,8.70
2019-03-18T19:56:24.781Z,8.73
2019-03-18T19:59:02.042Z,8.83
2019-03-18T20:01:39.385Z,8.90
2019-03-18T20:04:20.315Z,8.85
2019-03-18T20:06:55.075Z,8.87
2019-03-18T20:09:30.102Z,8.91
2019-03-18T20:12:04.065Z,8.89
2019-03-18T20:14:38.686Z,8.90
2019-03-18T20:17:15.095Z,8.81
2019-03-18T20:19:49.673Z,8.82
2019-03-18T20:22:23.945Z,8.85
2019-03-18T20:24:59.160Z,8.91
2019-03-18T20:27:33.912Z,8.93
2019-03-18T20:30:10.802Z,8.95
2019-03-18T20:32:51.950Z,8.99
2019-03-18T20:35:30.347Z,9.09
2019-03-18T20:38:06.904Z,9.08
2019-03-18T20:40:44.229Z,9.10
2019-03-18T20:43:19.553Z,9.09
2019-03-18T20:45:55.327Z,9.04
2019-03-18T20:48:29.631Z,9.01
2019-03-18T20:51:06.124Z,9.01
2019-03-18T20:53:44.350Z,9.00
2019-03-18T20:56:20.410Z,9.01
2019-03-18T20:58:55.970Z,8.99
2019-03-18T21:01:30.796Z,9.01
2019-03-18T21:04:04.383Z,8.95
2019-03-18T21:06:38.287Z,8.89
2019-03-18T21:09:12.587Z,8.86
2019-03-18T21:11:47.379Z,8.84
2019-03-18T21:14:23.107Z,8.86
2019-03-18T21:17:01.931Z,8.82
2019-03-18T21:19:35.380Z,8.78
2019-03-18T21:22:09.261Z,8.69
2019-03-18T21:24:43.555Z,8.59
2019-03-18T21:27:20.162Z,8.57
2019-03-18T21:29:54.284Z,8.49
2019-03-18T21:32:28.754Z,8.35
2019-03-18T21:35:03.586Z,8.31
2019-03-18T21:37:37.675Z,8.25
2019-03-18T21:40:14.027Z,8.19
2019-03-18T21:42:49.420Z,8.11
2019-03-18T21:45:24.036Z,8.10
2019-03-18T21:48:00.067Z,8.04
2019-03-18T21:50:40.745Z,8.03
2019-03-18T21:53:14.621Z,8.02
2019-03-18T21:55:51.516Z,7.98
2019-03-18T21:58:25.975Z,7.93
2019-03-18T22:01:00.209Z,7.91
2019-03-18T22:03:34.547Z,7.90
2019-03-18T22:06:08.779Z,7.89
2019-03-18T22:08:43.695Z,7.87
2019-03-18T22:11:21.893Z,7.84
2019-03-18T22:13:59.823Z,7.84
2019-03-18T22:16:39.451Z,7.84
2019-03-18T22:19:18.829Z,7.82
2019-03-18T22:21:57.228Z,7.80
2019-03-18T22:24:44.874Z,7.81
2019-03-18T22:27:15.198Z,7.83
2019-03-18T22:29:50.808Z,7.83
2019-03-18T22:32:26.561Z,7.81
2019-03-18T22:35:03.118Z,7.82
2019-03-18T22:37:37.363Z,7.84
2019-03-18T22:40:12.903Z,7.81
2019-03-18T22:42:48.615Z,7.80
2019-03-18T22:45:24.019Z,7.77
2019-03-18T22:47:58.910Z,7.77
2019-03-18T22:50:34.499Z,7.73
2019-03-18T22:53:10.651Z,7.73
2019-03-18T22:55:47.534Z,7.73
2019-03-18T22:58:23.535Z,7.69
2019-03-18T23:01:26.005Z,7.68
2019-03-18T23:04:00.114Z,7.68
2019-03-18T23:06:33.872Z,7.68
2019-03-18T23:09:15.374Z,7.66
2019-03-18T23:11:51.069Z,7.59
2019-03-18T23:14:27.223Z,7.50
2019-03-18T23:17:03.759Z,7.39
2019-03-18T23:19:39.801Z,7.33
2019-03-18T23:22:25.443Z,7.35
2019-03-18T23:25:07.551Z,7.34
2019-03-18T23:27:42.794Z,7.35
2019-03-18T23:30:20.473Z,7.31
2019-03-18T23:33:03.328Z,7.25
2019-03-18T23:35:42.035Z,7.15
2019-03-18T23:38:20.653Z,7.11
2019-03-18T23:41:00.295Z,7.07
2019-03-18T23:43:46.403Z,7.05
2019-03-18T23:46:25.402Z,7.08
2019-03-18T23:49:13.999Z,7.11
2019-03-18T23:51:55.481Z,7.18
2019-03-18T23:54:39.878Z,7.24
2019-03-18T23:57:17.815Z,7.30
